• Join FlightAware (Why Join?)
  • Login
  • US Flag 
03:21PM EST


 

Airport Tracker/Info


-or-


 

Live Flight TrackerFlight Track Log ✈ SWA3206 ✈ 08-May-2013 ✈ KPHX - KBWI

Flight Track Log - Related Links

Times and Time Zones

All times are in EDT time to prevent confusion due to time zone crossing. See the SWA3206 flight status page for this flight to view local times or setup timezone preferences in your user account.

Time Position Orientation Groundspeed Altitude Reporting Facility
EDT Latitude Longitude Course Direction KTS MPH feet Rate Location/Type
08:40PM 33.4333 -112.0667 270° West 172 198 3,100  Level Phoenix TRACON
08:41PM 33.4344 -112.0947 273° West 179 206 3,900 1,860 Climbing Albuquerque Center
08:42PM 33.4372 -112.1753 272° West 224 258 5,800 2,400 Climbing Albuquerque Center
08:43PM 33.5089 -112.1931 348° North 298 343 8,900 2,940 Climbing Albuquerque Center
08:44PM 33.5761 -112.1408 33° Northeast 323 372 11,900 3,000 Climbing Albuquerque Center
08:45PM 33.5908 -112.0250 81° East 351 404 15,100 2,940 Climbing Albuquerque Center
08:46PM 33.6075 -111.9047 81° East 365 420 18,000 3,060 Climbing Albuquerque Center
08:47PM 33.6275 -111.7517 81° East 386 444 21,400 2,580 Climbing Albuquerque Center
08:48PM 33.6450 -111.6178 81° East 403 464 23,400 1,980 Climbing Albuquerque Center
08:49PM 33.6628 -111.4747 81° East 427 491 25,500 1,920 Climbing Albuquerque Center
08:50PM 33.6811 -111.3256 82° East 447 514 27,400 1,800 Climbing Albuquerque Center
08:51PM 33.7206 -111.1767 72° East 469 540 29,200 1,500 Climbing Albuquerque Center
08:52PM 33.7744 -111.0294 66° East 482 555 30,600 1,440 Climbing Albuquerque Center
08:53PM 33.8392 -110.8425 67° East 500 575 32,200 1,440 Climbing Albuquerque Center
08:54PM 33.8944 -110.6842 67° East 510 587 33,600 1,500 Climbing Albuquerque Center
08:55PM 33.9508 -110.5253 67° East 516 594 35,300 1,440 Climbing Albuquerque Center
08:56PM 34.0094 -110.3583 67° East 518 596 36,600 1,080 Climbing Albuquerque Center
08:57PM 34.0642 -110.1969 68° East 521 600 37,600 1,140 Climbing Albuquerque Center
08:58PM 34.1269 -110.0164 67° East 521 600 39,000 660 Climbing Albuquerque Center
08:59PM 34.1786 -109.8658 67° East 514 592 39,000  Level Albuquerque Center
09:00PM 34.2297 -109.7175 67° East 506 582 39,000  Level Albuquerque Center
09:01PM 34.2894 -109.5436 67° East 503 579 39,000  Level Albuquerque Center
09:02PM 34.3394 -109.3939 68° East 503 579 39,000  Level Albuquerque Center
09:03PM 34.4000 -109.2183 67° East 505 581 39,000  Level Albuquerque Center
09:04PM 34.4503 -109.0694 68° East 504 580 39,000  Level Albuquerque Center
09:05PM 34.5092 -108.8961 68° East 501 577 39,000  Level Albuquerque Center
09:06PM 34.5589 -108.7472 68° East 500 575 39,000  Level Albuquerque Center
09:07PM 34.6086 -108.6011 68° East 496 571 39,000  Level Albuquerque Center
09:08PM 34.6656 -108.4286 68° East 495 570 39,000  Level Albuquerque Center
09:09PM 34.7164 -108.2736 68° East 493 567 39,000  Level Albuquerque Center
09:10PM 34.7689 -108.1186 68° East 496 571 39,000  Level Albuquerque Center
09:11PM 34.8189 -107.9625 69° East 495 570 39,000  Level Albuquerque Center
09:12PM 34.8706 -107.8067 68° East 497 572 39,000  Level Albuquerque Center
09:13PM 34.9214 -107.6497 68° East 497 572 39,000  Level Albuquerque Center
09:14PM 34.9711 -107.4922 69° East 498 573 39,000  Level Albuquerque Center
09:15PM 35.0211 -107.3356 69° East 496 571 39,000  Level Albuquerque Center
09:16PM 35.0781 -107.1569 69° East 502 578 39,000  Level Albuquerque Center
09:18PM 35.1339 -106.9808 69° East 499 574 39,000  Level Albuquerque Center
09:19PM 35.1811 -106.8308 69° East 496 571 39,000  Level Albuquerque Center
09:20PM 35.2383 -106.6553 68° East 497 572 39,000  Level Albuquerque Center
09:21PM 35.2844 -106.5028 70° East 494 568 39,000  Level Albuquerque Center
09:22PM 35.3311 -106.3467 70° East 489 563 39,000  Level Albuquerque Center
09:23PM 35.3811 -106.1933 68° East 486 559 39,000  Level Albuquerque Center
09:24PM 35.4267 -106.0381 70° East 484 557 39,000  Level Albuquerque Center
09:25PM 35.4742 -105.8833 69° East 485 558 39,000  Level Albuquerque Center
09:26PM 35.5219 -105.7258 70° East 485 558 39,000  Level Albuquerque Center
09:27PM 35.5686 -105.5697 70° East 483 556 39,000  Level Albuquerque Center
09:28PM 35.6131 -105.4164 70° East 476 548 39,000  Level Albuquerque Center
09:29PM 35.6692 -105.2319 69° East 484 557 39,000  Level Albuquerque Center
09:30PM 35.7122 -105.0789 71° East 474 545 39,000  Level Albuquerque Center
09:31PM 35.7583 -104.9225 70° East 478 550 39,000  Level Albuquerque Center
09:32PM 35.8050 -104.7658 70° East 481 554 39,000  Level Albuquerque Center
09:33PM 35.8508 -104.6081 70° East 482 555 39,000  Level Albuquerque Center
09:34PM 35.8969 -104.4503 70° East 483 556 39,000  Level Albuquerque Center
09:35PM 35.9431 -104.2931 70° East 482 555 39,000  Level Albuquerque Center
09:36PM 35.9878 -104.1350 71° East 482 555 39,000  Level Albuquerque Center
09:37PM 36.0322 -103.9789 71° East 479 551 39,000  Level Albuquerque Center
09:38PM 36.0767 -103.8208 71° East 479 551 39,000  Level Albuquerque Center
09:39PM 36.1206 -103.6667 71° East 475 547 39,000  Level Albuquerque Center
09:40PM 36.1647 -103.5150 70° East 467 537 39,000  Level Albuquerque Center
09:41PM 36.2086 -103.3603 71° East 469 540 39,000  Level Albuquerque Center
09:42PM 36.2500 -103.2058 72° East 469 540 39,000  Level Albuquerque Center
09:43PM 36.2914 -103.0506 72° East 470 541 39,000  Level Albuquerque Center
09:44PM 36.3336 -102.8956 71° East 469 540 39,000  Level Albuquerque Center
09:45PM 36.3761 -102.7417 71° East 465 535 39,000  Level Albuquerque Center
09:46PM 36.4164 -102.5897 72° East 463 533 39,000  Level Albuquerque Center
09:47PM 36.4661 -102.4058 71° East 466 536 39,000  Level Albuquerque Center
09:48PM 36.5086 -102.2511 71° East 470 541 39,000  Level Albuquerque Center
09:49PM 36.5492 -102.0964 72° East 471 542 39,000  Level Albuquerque Center
09:50PM 36.5892 -101.9397 72° East 473 544 39,000  Level Albuquerque Center
09:51PM 36.6122 -101.7722 80° East 472 543 39,000  Level Albuquerque Center
09:52PM 36.6272 -101.6167 83° East 472 543 39,000  Level Albuquerque Center
09:53PM 36.6439 -101.4375 83° East 471 542 39,000  Level Albuquerque Center
09:54PM 36.6578 -101.2839 84° East 469 540 39,000  Level Kansas City Center
09:55PM 36.6706 -101.1297 84° East 470 541 39,000  Level Kansas City Center
09:56PM 36.6875 -100.9536 83° East 465 535 39,000  Level Kansas City Center
09:57PM 36.7022 -100.8033 83° East 460 529 39,000  Level Kansas City Center
09:58PM 36.7169 -100.6531 83° East 459 528 39,000  Level Kansas City Center
09:59PM 36.7353 -100.4819 82° East 453 521 39,000  Level Kansas City Center
10:00PM 36.7489 -100.3339 83° East 452 520 39,000  Level Kansas City Center
10:01PM 36.7675 -100.1628 82° East 449 517 39,000  Level Kansas City Center
10:02PM 36.7800 -100.0369 83° East 445 512 39,000  Level Kansas City Center
10:03PM 36.7969 -99.8842 82° East 443 510 39,000  Level Kansas City Center
10:05PM 36.8169 -99.7011 82° East 440 506 39,000  Level Kansas City Center
10:06PM 36.8339 -99.5481 82° East 442 509 39,000  Level Kansas City Center
10:07PM 36.8522 -99.3969 81° East 440 506 39,000  Level Kansas City Center
10:08PM 36.8417 -99.2572 95° East 423 487 39,000  Level Kansas City Center
10:09PM 36.7847 -99.1258 118° Southeast 423 487 39,000  Level Kansas City Center
10:10PM 36.7281 -98.9869 117° Southeast 454 522 39,000  Level Kansas City Center
10:11PM 36.6706 -98.8583 119° Southeast 437 503 39,000  Level Kansas City Center
10:12PM 36.6100 -98.7189 118° Southeast 450 518 39,000  Level Kansas City Center
10:13PM 36.5544 -98.5894 118° Southeast 433 498 39,000  Level Kansas City Center
10:14PM 36.4964 -98.4581 119° Southeast 430 495 39,000  Level Kansas City Center
10:15PM 36.4383 -98.3242 118° Southeast 433 498 39,000  Level Kansas City Center
10:16PM 36.4331 -98.1661 92° East 450 518 39,000  Level Kansas City Center
10:17PM 36.4533 -98.0058 81° East 461 531 39,000  Level Kansas City Center
10:18PM 36.5056 -97.8531 67° East 472 543 39,000  Level Kansas City Center
10:19PM 36.5497 -97.6992 70° East 475 547 39,000  Level Kansas City Center
10:20PM 36.5906 -97.5506 71° East 474 545 39,000  Level Kansas City Center
10:21PM 36.6369 -97.3892 70° East 474 545 39,000  Level Kansas City Center
10:22PM 36.6814 -97.2333 70° East 476 548 39,000  Level Kansas City Center
10:23PM 36.7311 -97.0561 71° East 479 551 39,000 480 Level Kansas City Center
10:24PM 36.7775 -96.8972 70° East 483 556 40,000 480 Climbing Kansas City Center
10:25PM 36.8203 -96.7392 71° East 482 555 40,000  Level Kansas City Center
10:26PM 36.8644 -96.5844 70° East 476 548 40,000  Level Kansas City Center
10:27PM 36.9069 -96.4281 71° East 475 547 40,000  Level Kansas City Center
10:28PM 36.9497 -96.2697 71° East 476 548 40,000  Level Kansas City Center
10:29PM 36.9939 -96.1100 71° East 478 550 40,000 240 Level Kansas City Center
10:30PM 37.0383 -95.9464 71° East 486 559 40,600 480 Climbing Kansas City Center
10:31PM 37.0828 -95.7822 71° East 493 567 41,000 180 Climbing Kansas City Center
10:32PM 37.1256 -95.6192 72° East 492 566 41,000  Level Kansas City Center
10:33PM 37.1683 -95.4594 71° East 485 558 41,000  Level Kansas City Center
10:34PM 37.2117 -95.3033 71° East 476 548 41,000  Level Kansas City Center
10:35PM 37.2536 -95.1481 71° East 471 542 41,000  Level Kansas City Center
10:36PM 37.2953 -94.9886 72° East 474 545 41,000  Level Kansas City Center
10:37PM 37.3450 -94.7967 72° East 478 550 41,000  Level Kansas City Center
10:38PM 37.3847 -94.6372 73° East 477 549 41,000  Level Kansas City Center
10:39PM 37.4267 -94.4797 71° East 474 545 41,000  Level Kansas City Center
10:40PM 37.4661 -94.3208 73° East 475 547 41,000  Level Kansas City Center
10:41PM 37.5042 -94.1628 73° East 471 542 41,000  Level Kansas City Center
10:42PM 37.5450 -94.0047 72° East 463 533 41,000  Level Kansas City Center
10:43PM 37.5844 -93.8506 72° East 462 532 41,000  Level Kansas City Center
10:44PM 37.6222 -93.6978 73° East 458 527 41,000  Level Kansas City Center
10:45PM 37.6611 -93.5433 72° East 460 529 41,000  Level Kansas City Center
10:46PM 37.7003 -93.3881 72° East 462 532 41,000  Level Kansas City Center
10:47PM 37.7383 -93.2306 73° East 466 536 41,000  Level Kansas City Center
10:48PM 37.7767 -93.0739 73° East 466 536 41,000  Level Kansas City Center
10:49PM 37.8147 -92.9156 73° East 469 540 41,000  Level Kansas City Center
10:50PM 37.8569 -92.7439 73° East 467 537 41,000  Level Kansas City Center
10:51PM 37.8944 -92.5856 73° East 470 541 41,000  Level Kansas City Center
10:52PM 37.9319 -92.4267 73° East 471 542 41,000  Level Kansas City Center
10:53PM 37.9694 -92.2656 74° East 475 547 41,000  Level Kansas City Center
10:54PM 38.0056 -92.1044 74° East 476 548 41,000  Level Kansas City Center
10:55PM 38.0442 -91.9417 73° East 473 544 41,000  Level Kansas City Center
10:56PM 38.0819 -91.7817 73° East 473 544 41,000  Level Kansas City Center
10:57PM 38.1183 -91.6214 74° East 473 544 41,000  Level Kansas City Center
10:58PM 38.1542 -91.4636 74° East 467 537 41,000  Level Kansas City Center
10:59PM 38.1881 -91.3117 74° East 468 539 41,000  Level Kansas City Center
11:00PM 38.2242 -91.1539 74° East 468 539 41,000  Level Kansas City Center
11:01PM 38.2667 -90.9617 74° East 472 543 41,000  Level Kansas City Center
11:02PM 38.3006 -90.8000 75° East 475 547 41,000  Level Kansas City Center
11:03PM 38.3364 -90.6378 74° East 479 551 41,000  Level Kansas City Center
11:04PM 38.3706 -90.4758 75° East 480 552 41,000  Level Kansas City Center
11:05PM 38.4058 -90.3142 74° East 479 551 41,000  Level Kansas City Center
11:07PM 38.4403 -90.1533 75° East 477 549 41,000  Level Kansas City Center
11:08PM 38.4744 -89.9958 74° East 467 537 41,000  Level Kansas City Center
11:09PM 38.5194 -89.8411 70° East 467 537 41,000  Level Kansas City Center
11:10PM 38.5764 -89.6581 68° East 474 545 41,000  Level Kansas City Center
11:11PM 38.6222 -89.5033 69° East 470 541 41,000  Level Kansas City Center
11:12PM 38.6711 -89.3375 69° East 464 534 41,000  Level Kansas City Center
11:13PM 38.7164 -89.1831 69° East 466 536 41,000  Level Kansas City Center
11:14PM 38.7614 -89.0294 69° East 463 533 41,000  Level Kansas City Center
11:15PM 38.8067 -88.8839 68° East 468 539 41,000  Level Kansas City Center
11:16PM 38.8511 -88.7286 70° East 466 536 41,000  Level Kansas City Center
11:17PM 38.9011 -88.5503 70° East 470 541 41,000  Level Kansas City Center
11:18PM 38.9392 -88.3883 73° East 471 542 41,000  Level Kansas City Center
11:18PM 38.9533 -88.2911 79° East 474 545 41,000  Level Indianapolis Center
11:19PM 38.9831 -88.1261 77° East 471 542 41,000  Level Indianapolis Center
11:20PM 39.0119 -87.9608 77° East 471 542 41,000  Level Indianapolis Center
11:21PM 39.0403 -87.7939 78° East 475 547 41,000  Level Indianapolis Center
11:23PM 39.0742 -87.5967 77° East 468 539 41,000  Level Indianapolis Center
11:24PM 39.1017 -87.4356 78° East 461 531 41,000  Level Indianapolis Center
11:25PM 39.1289 -87.2708 78° East 456 525 41,000  Level Indianapolis Center
11:26PM 39.1561 -87.1117 78° East 456 525 41,000  Level Indianapolis Center
11:27PM 39.1814 -86.9558 78° East 451 519 41,000  Level Indianapolis Center
11:28PM 39.2078 -86.7981 78° East 452 520 41,000  Level Indianapolis Center
11:29PM 39.2339 -86.6381 78° East 459 528 41,000  Level Indianapolis Center
11:30PM 39.2583 -86.4781 79° East 460 529 41,000  Level Indianapolis Center
11:31PM 39.2836 -86.3172 78° East 463 533 41,000  Level Indianapolis Center
11:32PM 39.3147 -86.1239 78° East 465 535 41,000  Level Indianapolis Center
11:33PM 39.3497 -85.9669 74° East 464 534 41,000  Level Indianapolis Center
11:34PM 39.3911 -85.8117 71° East 462 532 41,000  Level Indianapolis Center
11:35PM 39.4333 -85.6586 70° East 457 526 41,000  Level Indianapolis Center
11:36PM 39.4756 -85.5058 70° East 456 525 41,000  Level Indianapolis Center
11:37PM 39.5064 -85.3469 76° East 458 527 41,000  Level Indianapolis Center
11:38PM 39.5278 -85.1847 80° East 461 531 41,000  Level Indianapolis Center
11:39PM 39.5483 -85.0222 81° East 460 529 41,000  Level Indianapolis Center
11:40PM 39.5722 -84.8428 80° East 461 531 41,000  Level Indianapolis Center
11:41PM 39.5925 -84.6781 81° East 460 529 41,000  Level Indianapolis Center
11:42PM 39.6131 -84.5131 81° East 461 531 41,000  Level Indianapolis Center
11:43PM 39.6344 -84.3506 80° East 456 525 41,000  Level Indianapolis Center
11:44PM 39.6544 -84.1869 81° East 456 525 41,000  Level Indianapolis Center
11:45PM 39.6747 -84.0228 81° East 458 527 41,000  Level Indianapolis Center
11:46PM 39.6972 -83.8306 81° East 458 527 41,000  Level Indianapolis Center
11:47PM 39.7158 -83.6650 82° East 461 531 41,000  Level Indianapolis Center
11:48PM 39.7267 -83.4983 85° East 468 539 41,000  Level Indianapolis Center
11:49PM 39.7369 -83.3325 85° East 468 539 41,000  Level Indianapolis Center
11:50PM 39.7450 -83.1642 86° East 467 537 41,000  Level Indianapolis Center
11:51PM 39.7536 -82.9956 86° East 467 537 41,000  Level Indianapolis Center
11:52PM 39.7622 -82.8250 86° East 470 541 41,000  Level Indianapolis Center
11:53PM 39.7697 -82.6547 87° East 470 541 41,000  Level Indianapolis Center
11:54PM 39.7778 -82.4853 86° East 467 537 41,000  Level Indianapolis Center
11:55PM 39.7847 -82.3156 87° East 468 539 41,000  Level Indianapolis Center
11:56PM 39.7922 -82.1458 87° East 468 539 41,000  Level Indianapolis Center
11:57PM 39.7989 -81.9761 87° East 468 539 41,000  Level Indianapolis Center
11:58PM 39.7969 -81.8058 91° East 469 540 41,000  Level Indianapolis Center
11:59PM 39.7889 -81.6361 93° East 466 536 41,000  Level Indianapolis Center
12:00AM 39.7864 -81.4828 91° East 460 529 41,000  Level Cleveland Center
12:01AM 39.7792 -81.3178 93° East 460 529 41,000  Level Cleveland Center
12:02AM 39.7717 -81.1583 93° East 454 522 41,000  Level Cleveland Center
12:03AM 39.7642 -80.9964 93° East 454 522 41,000  Level Cleveland Center
12:04AM 39.7583 -80.8369 93° East 449 517 41,000  Level Cleveland Center
12:05AM 39.7525 -80.6694 93° East 449 517 41,000  Level Cleveland Center
12:06AM 39.7419 -80.5075 95° East 449 517 41,000  Level Cleveland Center
12:07AM 39.7356 -80.3428 93° East 454 522 41,000 -780 Level Cleveland Center
12:09AM 39.7169 -80.0456 95° East 459 528 39,000 -1,740 Descending Washington Center
12:10AM 39.7103 -79.8833 93° East 459 528 36,300 -2,580 Descending Washington Center
12:11AM 39.7014 -79.7208 94° East 459 528 33,800 -2,400 Descending Washington Center
12:12AM 39.6936 -79.5775 94° East 459 528 31,600 -2,220 Descending Washington Center
12:13AM 39.6842 -79.4231 94° East 446 513 29,400 -2,160 Descending Washington Center
12:14AM 39.6761 -79.2772 94° East 425 489 27,400 -2,040 Descending Washington Center
12:15AM 39.6658 -79.1339 95° East 402 463 25,400 -1,200 Descending Washington Center
12:16AM 39.6447 -79.0006 102° East 389 448 25,000 -240 Descending Washington Center
12:17AM 39.6114 -78.8508 106° East 387 445 25,000 -300 Level Washington Center
12:18AM 39.5667 -78.7250 115° Southeast 382 440 24,500 -1,440 Descending Washington Center
12:19AM 39.5219 -78.5994 115° Southeast 382 440 22,200 -2,280 Descending Washington Center
12:20AM 39.4769 -78.4764 115° Southeast 382 440 20,000 -2,100 Descending Washington Center
12:21AM 39.4403 -78.3514 111° Southeast 382 440 18,000 -2,040 Descending Washington Center
12:22AM 39.4286 -78.2247 97° East 365 420 16,000 -1,560 Descending Washington Center
12:23AM 39.4125 -78.1031 100° East 354 407 15,000 -540 Descending Washington Center
12:24AM 39.4000 -78.0008 99° East 344 396 15,000 -120 Level Washington Center
12:25AM 39.3878 -77.8822 98° East 331 381 14,800 -660 Descending Washington Center
12:26AM 39.3939 -77.7669 86° East 331 381 13,700 -1,080 Descending Washington Center
12:27AM 39.4086 -77.6517 81° East 326 375 12,700 -1,020 Descending Washington Center
12:28AM 39.4228 -77.5419 80° East 326 375 11,700 -900 Descending Washington Center
12:29AM 39.4372 -77.4294 81° East 321 369 11,000 -540 Descending Washington Center
12:30AM 39.4450 -77.3275 84° East 302 348 10,700 -720 Descending Washington Center
12:30AM 39.4333 -77.3000 119° Southeast 298 343 10,100 -1,260 Descending Potomac TRACON
12:31AM 39.4333 -77.1833 90° East 291 335 9,100 -1,140 Descending Potomac TRACON
12:32AM 39.4167 -77.1000 104° East 286 329 7,900 -1,200 Descending Potomac TRACON
12:33AM 39.4000 -77.0000 102° East 278 320 6,700 -1,200 Descending Potomac TRACON
12:34AM 39.3833 -76.9000 102° East 269 310 5,500 -1,200 Descending Potomac TRACON
12:35AM 39.3833 -76.8167 90° East 262 302 4,400 -1,140 Descending Potomac TRACON
12:36AM 39.3667 -76.7167 102° East 260 299 3,400 -1,020 Descending Potomac TRACON
12:37AM 39.3333 -76.6333 117° Southeast 256 295 2,400 -540 Descending Potomac TRACON
12:38AM 39.3167 -76.5500 104° East 242 278 2,400 -180 Level Potomac TRACON
12:39AM 39.2833 -76.5167 142° Southeast 219 252 2,100 -240 Descending Potomac TRACON
12:40AM 39.2333 -76.4833 153° Southeast 212 244 2,000 -120 Descending Potomac TRACON
12:41AM 39.1833 -76.4667 166° South 219 252 1,900  Descending Potomac TRACON
12:42AM 39.1667 -76.5167 247° West 178 205 2,000 -300 Climbing Potomac TRACON
12:43AM 39.1667 -76.5667 270° West 153 176 1,300 -720 Descending Potomac TRACON
12:44AM 39.1667 -76.6167 270° West 139 160 600 -480 Descending Potomac TRACON
12:45AM 39.1667 -76.6667 270° West 133 153 400 -240 Descending Potomac TRACON
12:47AM 39.1754 -76.6683 225° Southwest  Level Estimated